Sunday, October 21, 2018, 7:25 PM EDT
Back to Local

KAQW, N Adams Harriman-and-west

Location: North Adams, MA, United States Lat: 42.7
Local Time: 7:25 PM EDT (23:25 GMT) Lon: -73.167
Time Zone: US/Eastern Elev: 652 ft

Show me the last for .
Show Decoded

2018-10-21 18:52 METAR KAQW 212252Z AUTO 28010G21KT 10SM CLR 03/M07 A3001 RMK AO2 SLP166
                 T00281072 =
2018-10-21 17:52 METAR KAQW 212152Z AUTO 28012G19KT 10SM SCT060 04/M08 A2998 RMK AO2 SLP156
                 T00391078 =
2018-10-21 16:52 METAR KAQW 212052Z AUTO 28009G18KT 10SM FEW060 05/M07 A2994 RMK AO2 SLP145
                 T00501072 53009 =
2018-10-21 15:52 METAR KAQW 211952Z AUTO 29008G20KT 260V320 10SM SCT060 06/M07 A2992 RMK AO2 PK
                 WND 28026/1859 SLP137 T00561072 =
2018-10-21 14:52 METAR KAQW 211852Z AUTO 28017G28KT 10SM OVC055 05/M06 A2991 RMK AO2 PK WND
                 27028/1850 SLP134 T00501061 =
2018-10-21 13:52 METAR KAQW 211752Z AUTO 29010G22KT 260V320 10SM OVC055 04/M06 A2992 RMK AO2
                 SLP135 T00441056 10050 20033 53007 =
2018-10-21 12:52 METAR KAQW 211652Z AUTO 32009G16KT 10SM BKN043 OVC050 04/M04 A2991 RMK AO2
                 SLP132 T00441039 =
2018-10-21 11:52 METAR KAQW 211552Z AUTO 28011G17KT 10SM BKN041 OVC049 03/M04 A2990 RMK AO2
                 SLP131 T00331039 =
2018-10-21 10:52 METAR KAQW 211452Z AUTO 31008G16KT 280V360 10SM BKN040 OVC049 03/M04 A2990 RMK
                 AO2 SLP129 T00331039 51033 =
2018-10-21 09:52 METAR KAQW 211352Z AUTO 29008G17KT 230V360 10SM OVC043 03/M03 A2987 RMK AO2
                 SLP121 T00331028 =
2018-10-21 08:52 METAR KAQW 211252Z AUTO 10SM BKN038 OVC045 04/M03 A2984 RMK AO2 SLP110 T00391028
                 =
2018-10-21 07:52 METAR KAQW 211152Z AUTO 28009G18KT 10SM OVC043 04/M03 A2980 RMK AO2 SLP094 60000
                 70002 T00391028 10078 20039 53046 =
2018-10-21 06:52 METAR KAQW 211052Z AUTO 10SM SCT036 BKN120 05/M01 A2974 RMK AO2 SLP075 T00501006
                 =
2018-10-21 05:52 METAR KAQW 210952Z AUTO VRB06G14KT 10SM OVC110 06/01 A2969 RMK AO2 SLP057
                 T00610006 =
2018-10-21 04:52 METAR KAQW 210852Z AUTO 27007KT 230V310 10SM FEW037 BKN080 OVC090 06/02 A2966
                 RMK AO2 RAE28 SLP045 P0000 60000 T00610017 53014 =
2018-10-21 03:52 METAR KAQW 210752Z AUTO VRB06KT 10SM -RA SCT065 OVC090 07/03 A2963 RMK AO2 RAB52
                 SLP037 P0000 T00670028 =
2018-10-21 02:52 METAR KAQW 210652Z AUTO 26005KT 10SM OVC090 06/04 A2962 RMK AO2 SLP033 T00610039
                 =
2018-10-21 01:52 METAR KAQW 210552Z AUTO 26004KT 10SM OVC085 07/03 A2962 RMK AO2 SLP031 60000
                 T00720033 10094 20039 53001 =
2018-10-21 00:52 METAR KAQW 210452Z AUTO 23006KT 10SM BKN090 08/03 A2961 RMK AO2 SLP030 T00780033
                 401440039 =
2018-10-20 23:52 METAR KAQW 210352Z AUTO 00000KT 10SM SCT095 05/04 A2961 RMK AO2 SLP030 T00500039
                 =
2018-10-20 22:52 METAR KAQW 210252Z AUTO 27005KT 10SM OVC085 07/04 A2961 RMK AO2 SLP030 60000
                 T00670044 51005 =
2018-10-20 21:52 METAR KAQW 210152Z AUTO 36003KT 10SM OVC070 09/05 A2960 RMK AO2 RAE03 SLP027
                 P0000 T00890050 =
2018-10-20 20:52 METAR KAQW 210052Z AUTO 26008KT 10SM -RA BKN050 OVC065 09/06 A2961 RMK AO2
                 RAB13E23B48 SLP028 P0000 T00940056 =
2018-10-20 19:52 METAR KAQW 202352Z AUTO 27004KT 10SM BKN070 OVC090 08/06 A2960 RMK AO2 SLP025
                 60001 T00830061 10144 20078 53008 =

Support USWX by starting your Amazon purchase here.